sensor_id;sensor_type;location;lat;lon;timestamp;pressure;altitude;pressure_sealevel;temperature;humidity
76496;BME280;65329;52.544;4.662;2023-05-24T00:00:57;-18597.69;;;-139.74;0.00
76496;BME280;65329;52.544;4.662;2023-05-24T00:03:25;-18597.69;;;-139.74;0.00
76496;BME280;65329;52.544;4.662;2023-05-24T00:05:53;-18597.69;;;-139.74;0.00
76496;BME280;65329;52.544;4.662;2023-05-24T00:08:20;-18597.69;;;-139.74;0.00
76496;BME280;65329;52.544;4.662;2023-05-24T00:10:47;-18597.69;;;-139.74;0.00
76496;BME280;65329;52.544;4.662;2023-05-24T00:13:15;-18597.69;;;-139.74;0.00
76496;BME280;65329;52.544;4.662;2023-05-24T00:15:42;-18597.69;;;-139.74;0.00
76496;BME280;65329;52.544;4.662;2023-05-24T00:18:09;-18597.69;;;-139.74;0.00
76496;BME280;65329;52.544;4.662;2023-05-24T00:20:36;-18597.69;;;-139.74;0.00
76496;BME280;65329;52.544;4.662;2023-05-24T00:23:03;-18597.69;;;-139.74;0.00
76496;BME280;65329;52.544;4.662;2023-05-24T00:25:29;-18597.69;;;-139.74;0.00
76496;BME280;65329;52.544;4.662;2023-05-24T00:28:04;-18597.69;;;-139.74;0.00
76496;BME280;65329;52.544;4.662;2023-05-24T00:30:30;-18597.69;;;-139.74;0.00
76496;BME280;65329;52.544;4.662;2023-05-24T00:32:59;-18597.69;;;-139.74;0.00
76496;BME280;65329;52.544;4.662;2023-05-24T00:35:25;-18597.69;;;-139.74;0.00
76496;BME280;65329;52.544;4.662;2023-05-24T00:37:52;-18597.69;;;-139.74;0.00
76496;BME280;65329;52.544;4.662;2023-05-24T00:40:19;-18597.69;;;-139.74;0.00
76496;BME280;65329;52.544;4.662;2023-05-24T00:42:49;-18597.69;;;-139.74;0.00
76496;BME280;65329;52.544;4.662;2023-05-24T00:45:17;-18597.69;;;-139.74;0.00
76496;BME280;65329;52.544;4.662;2023-05-24T00:47:44;-18597.69;;;-139.74;0.00
76496;BME280;65329;52.544;4.662;2023-05-24T00:50:11;-18597.69;;;-139.74;0.00
76496;BME280;65329;52.544;4.662;2023-05-24T00:52:40;-18597.69;;;-139.74;0.00
76496;BME280;65329;52.544;4.662;2023-05-24T00:55:08;-18597.69;;;-139.74;0.00
76496;BME280;65329;52.544;4.662;2023-05-24T00:57:36;-18597.69;;;-139.74;0.00
76496;BME280;65329;52.544;4.662;2023-05-24T01:00:04;-18597.69;;;-139.74;0.00
76496;BME280;65329;52.544;4.662;2023-05-24T01:02:32;-18597.69;;;-139.74;0.00
76496;BME280;65329;52.544;4.662;2023-05-24T01:04:59;-18597.69;;;-139.74;0.00
76496;BME280;65329;52.544;4.662;2023-05-24T01:13:37;-18597.69;;;-139.74;0.00
76496;BME280;65329;52.544;4.662;2023-05-24T01:16:14;-18597.69;;;-139.74;0.00
76496;BME280;65329;52.544;4.662;2023-05-24T01:18:46;-18597.69;;;-139.74;0.00
76496;BME280;65329;52.544;4.662;2023-05-24T01:21:30;-18597.69;;;-139.74;0.00
76496;BME280;65329;52.544;4.662;2023-05-24T01:29:31;-16236.81;;;-139.74;0.00
76496;BME280;65329;52.544;4.662;2023-05-24T01:31:59;-15712.31;;;-139.74;0.00
76496;BME280;65329;52.544;4.662;2023-05-24T01:34:26;-15712.31;;;-139.74;0.00
76496;BME280;65329;52.544;4.662;2023-05-24T01:36:54;-15450.03;;;-139.74;0.00
76496;BME280;65329;52.544;4.662;2023-05-24T01:39:25;-15712.31;;;-139.74;0.00
76496;BME280;65329;52.544;4.662;2023-05-24T01:42:04;-15450.03;;;-139.74;0.00
76496;BME280;65329;52.544;4.662;2023-05-24T01:44:47;-15187.72;;;-139.74;0.00
76496;BME280;65329;52.544;4.662;2023-05-24T01:47:48;-15712.31;;;-139.74;0.00
76496;BME280;65329;52.544;4.662;2023-05-24T01:50:23;-15187.72;;;-139.74;0.00
76496;BME280;65329;52.544;4.662;2023-05-24T01:52:54;-15712.31;;;-139.74;0.00
76496;BME280;65329;52.544;4.662;2023-05-24T01:55:26;-15974.56;;;-139.74;0.00
76496;BME280;65329;52.544;4.662;2023-05-24T01:57:57;-15974.56;;;-139.74;0.00
76496;BME280;65329;52.544;4.662;2023-05-24T02:00:26;-16761.22;;;-139.74;0.00
76496;BME280;65329;52.544;4.662;2023-05-24T02:02:57;-16499.03;;;-139.74;0.00
76496;BME280;65329;52.544;4.662;2023-05-24T02:05:24;-15712.31;;;-139.74;0.00
76496;BME280;65329;52.544;4.662;2023-05-24T02:07:58;-15974.56;;;-139.74;0.00
76496;BME280;65329;52.544;4.662;2023-05-24T02:10:25;-16236.81;;;-139.74;0.00
76496;BME280;65329;52.544;4.662;2023-05-24T02:12:51;-16236.81;;;-139.74;0.00
76496;BME280;65329;52.544;4.662;2023-05-24T02:15:18;-17023.41;;;-139.74;0.00
76496;BME280;65329;52.544;4.662;2023-05-24T02:17:46;-17285.59;;;-139.74;0.00
76496;BME280;65329;52.544;4.662;2023-05-24T02:20:18;-17285.59;;;-139.74;0.00
76496;BME280;65329;52.544;4.662;2023-05-24T02:22:44;-17023.41;;;-139.74;0.00
76496;BME280;65329;52.544;4.662;2023-05-24T02:25:11;-16761.22;;;-139.74;0.00
76496;BME280;65329;52.544;4.662;2023-05-24T02:27:38;-16761.22;;;-139.74;0.00
76496;BME280;65329;52.544;4.662;2023-05-24T02:30:07;-16761.22;;;-139.74;0.00
76496;BME280;65329;52.544;4.662;2023-05-24T02:32:34;-16761.22;;;-139.74;0.00
76496;BME280;65329;52.544;4.662;2023-05-24T02:35:07;-16761.22;;;-139.74;0.00
76496;BME280;65329;52.544;4.662;2023-05-24T02:37:34;-15974.56;;;-139.74;0.00
76496;BME280;65329;52.544;4.662;2023-05-24T02:40:02;-15712.31;;;-139.74;0.00
76496;BME280;65329;52.544;4.662;2023-05-24T02:42:29;-15974.56;;;-139.74;0.00
76496;BME280;65329;52.544;4.662;2023-05-24T02:44:56;-15450.03;;;-139.74;0.00
76496;BME280;65329;52.544;4.662;2023-05-24T02:47:24;-15450.03;;;-139.74;0.00
76496;BME280;65329;52.544;4.662;2023-05-24T02:49:53;-16499.03;;;-139.74;0.00
76496;BME280;65329;52.544;4.662;2023-05-24T02:52:20;-16761.22;;;-139.74;0.00
76496;BME280;65329;52.544;4.662;2023-05-24T02:54:55;-16761.22;;;-139.74;0.00
76496;BME280;65329;52.544;4.662;2023-05-24T02:57:22;-16499.03;;;-139.74;0.00
76496;BME280;65329;52.544;4.662;2023-05-24T02:59:52;-17285.59;;;-139.74;0.00
76496;BME280;65329;52.544;4.662;2023-05-24T03:02:21;-16499.03;;;-139.74;0.00
76496;BME280;65329;52.544;4.662;2023-05-24T03:04:48;-17547.72;;;-139.74;0.00
76496;BME280;65329;52.544;4.662;2023-05-24T03:07:21;-18071.97;;;-139.74;0.00
76496;BME280;65329;52.544;4.662;2023-05-24T03:09:48;-18071.97;;;-139.74;0.00
76496;BME280;65329;52.544;4.662;2023-05-24T03:12:15;-18334.06;;;-139.74;0.00
76496;BME280;65329;52.544;4.662;2023-05-24T03:14:42;-18334.06;;;-139.74;0.00
76496;BME280;65329;52.544;4.662;2023-05-24T03:17:09;-18596.16;;;-139.74;0.00
76496;BME280;65329;52.544;4.662;2023-05-24T03:19:36;-18334.06;;;-139.74;0.00
76496;BME280;65329;52.544;4.662;2023-05-24T03:22:03;-18334.06;;;-139.74;0.00
76496;BME280;65329;52.544;4.662;2023-05-24T03:24:30;-18596.16;;;-139.74;0.00
76496;BME280;65329;52.544;4.662;2023-05-24T03:26:59;-18334.06;;;-139.74;0.00
76496;BME280;65329;52.544;4.662;2023-05-24T03:29:26;-18071.97;;;-139.74;0.00
76496;BME280;65329;52.544;4.662;2023-05-24T03:31:54;-18071.97;;;-139.74;0.00
76496;BME280;65329;52.544;4.662;2023-05-24T03:34:21;-18071.97;;;-139.74;0.00
76496;BME280;65329;52.544;4.662;2023-05-24T03:36:49;-17547.72;;;-139.74;0.00
76496;BME280;65329;52.544;4.662;2023-05-24T03:39:17;-17285.59;;;-139.74;0.00
76496;BME280;65329;52.544;4.662;2023-05-24T03:42:00;-16499.03;;;-139.74;0.00
76496;BME280;65329;52.544;4.662;2023-05-24T03:44:33;-16761.22;;;-139.74;0.00
76496;BME280;65329;52.544;4.662;2023-05-24T03:46:59;-15450.03;;;-139.74;0.00
76496;BME280;65329;52.544;4.662;2023-05-24T03:49:28;-14400.75;;;-139.74;0.00
76496;BME280;65329;52.544;4.662;2023-05-24T03:51:56;-13876.00;;;-139.74;0.00
76496;BME280;65329;52.544;4.662;2023-05-24T03:54:23;-12038.78;;;-139.74;0.00
76496;BME280;65329;52.544;4.662;2023-05-24T03:56:50;-10725.97;;;-139.74;0.00
76496;BME280;65329;52.544;4.662;2023-05-24T03:59:19;-9150.00;;;-139.74;0.00
76496;BME280;65329;52.544;4.662;2023-05-24T04:01:46;-3892.03;;;-139.74;0.00
76496;BME280;65329;52.544;4.662;2023-05-24T04:04:13;5854.13;;;-139.74;0.00
76496;BME280;65329;52.544;4.662;2023-05-24T04:06:41;2163.50;;;-139.74;0.00
76496;BME280;65329;52.544;4.662;2023-05-24T04:09:09;1373.09;;;-139.74;0.00
76496;BME280;65329;52.544;4.662;2023-05-24T04:11:39;11132.59;;;-139.74;0.00
76496;BME280;65329;52.544;4.662;2023-05-24T04:14:06;12189.16;;;-139.74;0.00
76496;BME280;65329;52.544;4.662;2023-05-24T04:16:32;15360.56;;;-139.74;0.00
76496;BME280;65329;52.544;4.662;2023-05-24T04:19:03;15360.56;;;-139.74;0.00
76496;BME280;65329;52.544;4.662;2023-05-24T04:21:30;15624.94;;;-139.74;0.00
76496;BME280;65329;52.544;4.662;2023-05-24T04:23:58;15096.16;;;-139.74;0.00
76496;BME280;65329;52.544;4.662;2023-05-24T04:26:29;26480.84;;;-139.74;0.00
76496;BME280;65329;52.544;4.662;2023-05-24T04:28:56;29133.22;;;-139.74;0.00
76496;BME280;65329;52.544;4.662;2023-05-24T04:31:25;33115.16;;;-139.74;0.00
76496;BME280;65329;52.544;4.662;2023-05-24T04:33:58;35506.25;;;-139.74;0.00
76496;BME280;65329;52.544;4.662;2023-05-24T04:36:33;29133.22;;;-139.74;0.00
76496;BME280;65329;52.544;4.662;2023-05-24T04:39:01;23830.28;;;-139.74;0.00
76496;BME280;65329;52.544;4.662;2023-05-24T04:41:30;31256.41;;;-139.74;0.00
76496;BME280;65329;52.544;4.662;2023-05-24T04:43:57;38164.75;;;-139.74;0.00
76496;BME280;65329;52.544;4.662;2023-05-24T04:46:27;37367.00;;;-139.74;0.00
76496;BME280;65329;52.544;4.662;2023-05-24T04:48:54;28867.91;;;-139.74;0.00
76496;BME280;65329;52.544;4.662;2023-05-24T04:51:30;37898.81;;;-139.74;0.00
76496;BME280;65329;52.544;4.662;2023-05-24T04:53:57;67491.34;;;-139.74;0.00
76496;BME280;65329;52.544;4.662;2023-05-24T04:56:23;-13613.59;;;-139.74;0.00
76496;BME280;65329;52.544;4.662;2023-05-24T04:58:51;117940.31;;;-139.74;0.00
76496;BME280;65329;52.544;4.662;2023-05-24T05:01:19;117940.31;;;-139.74;0.00
76496;BME280;65329;52.544;4.662;2023-05-24T05:03:47;117940.31;;;-139.74;0.00
76496;BME280;65329;52.544;4.662;2023-05-24T05:06:15;117940.31;;;-139.74;0.00
76496;BME280;65329;52.544;4.662;2023-05-24T05:08:43;117940.31;;;-139.74;0.00
76496;BME280;65329;52.544;4.662;2023-05-24T05:11:11;-18597.69;;;-139.74;0.00
76496;BME280;65329;52.544;4.662;2023-05-24T05:13:40;-18597.69;;;-139.74;0.00
76496;BME280;65329;52.544;4.662;2023-05-24T05:16:07;-18597.69;;;-139.74;0.00
76496;BME280;65329;52.544;4.662;2023-05-24T05:18:35;-18597.69;;;-139.74;0.00
76496;BME280;65329;52.544;4.662;2023-05-24T05:21:02;-18597.69;;;-139.74;0.00
76496;BME280;65329;52.544;4.662;2023-05-24T05:23:29;-17547.72;;;-139.74;0.00
76496;BME280;65329;52.544;4.662;2023-05-24T05:26:00;-16761.22;;;-139.74;0.00
76496;BME280;65329;52.544;4.662;2023-05-24T05:28:27;-18596.16;;;-139.74;0.00
76496;BME280;65329;52.544;4.662;2023-05-24T05:30:54;-18596.16;;;-139.74;0.00
76496;BME280;65329;52.544;4.662;2023-05-24T05:33:22;-18596.16;;;-139.74;0.00
76496;BME280;65329;52.544;4.662;2023-05-24T05:35:49;18005.38;;;-139.74;0.00
76496;BME280;65329;52.544;4.662;2023-05-24T05:38:20;10604.44;;;-139.74;0.00
76496;BME280;65329;52.544;4.662;2023-05-24T05:40:52;5326.69;;;-139.74;0.00
76496;BME280;65329;52.544;4.662;2023-05-24T05:43:19;4272.00;;;-139.74;0.00
76496;BME280;65329;52.544;4.662;2023-05-24T05:45:46;4272.00;;;-139.74;0.00
76496;BME280;65329;52.544;4.662;2023-05-24T05:48:13;16153.81;;;-139.74;0.00
76496;BME280;65329;52.544;4.662;2023-05-24T05:50:40;29133.22;;;-139.74;0.00
76496;BME280;65329;52.544;4.662;2023-05-24T05:53:08;44691.91;;;-139.74;0.00
76496;BME280;65329;52.544;4.662;2023-05-24T05:55:35;67907.88;;;-139.74;0.00
76496;BME280;65329;52.544;4.662;2023-05-24T05:58:04;78879.34;;;-139.74;0.00
76496;BME280;65329;52.544;4.662;2023-05-24T06:00:31;88872.81;;;-139.74;0.00
76496;BME280;65329;52.544;4.662;2023-05-24T06:03:00;97454.81;;;-139.74;0.00
76496;BME280;65329;52.544;4.662;2023-05-24T06:05:28;102162.19;;;-139.74;0.00
76496;BME280;65329;52.544;4.662;2023-05-24T06:07:55;90828.19;;;-139.74;0.00
76496;BME280;65329;52.544;4.662;2023-05-24T06:10:22;87703.00;;;-139.74;0.00
76496;BME280;65329;52.544;4.662;2023-05-24T06:12:49;78791.19;;;-139.74;0.00
76496;BME280;65329;52.544;4.662;2023-05-24T06:15:17;117940.31;;;-139.74;0.00
76496;BME280;65329;52.544;4.662;2023-05-24T06:17:48;111089.78;;;-139.74;0.00
76496;BME280;65329;52.544;4.662;2023-05-24T06:20:15;65003.44;;;-139.74;0.00
76496;BME280;65329;52.544;4.662;2023-05-24T06:22:42;87751.41;;;-139.74;0.00
76496;BME280;65329;52.544;4.662;2023-05-24T06:25:11;80172.59;;;-139.74;0.00
76496;BME280;65329;52.544;4.662;2023-05-24T06:27:40;109264.19;;;-139.74;0.00
76496;BME280;65329;52.544;4.662;2023-05-24T06:30:08;87902.88;;;-139.74;0.00
76496;BME280;65329;52.544;4.662;2023-05-24T06:32:35;117099.00;;;-139.74;0.00
76496;BME280;65329;52.544;4.662;2023-05-24T06:35:05;116876.50;;;-139.74;0.00
76496;BME280;65329;52.544;4.662;2023-05-24T06:37:32;117938.19;;;-139.74;0.00
76496;BME280;65329;52.544;4.662;2023-05-24T06:39:59;77884.50;;;-139.74;0.00
76496;BME280;65329;52.544;4.662;2023-05-24T06:42:26;75266.38;;;-139.74;0.00
76496;BME280;65329;52.544;4.662;2023-05-24T06:44:57;117940.31;;;-139.74;0.00
76496;BME280;65329;52.544;4.662;2023-05-24T06:47:24;117940.31;;;-139.74;0.00
76496;BME280;65329;52.544;4.662;2023-05-24T06:49:53;117940.31;;;-139.74;0.00
76496;BME280;65329;52.544;4.662;2023-05-24T06:52:20;117940.31;;;-139.74;0.00
76496;BME280;65329;52.544;4.662;2023-05-24T06:54:47;117938.19;;;-139.74;0.00
76496;BME280;65329;52.544;4.662;2023-05-24T06:57:14;97372.56;;;-139.74;0.00
76496;BME280;65329;52.544;4.662;2023-05-24T06:59:41;96293.06;;;-139.74;0.00
76496;BME280;65329;52.544;4.662;2023-05-24T07:02:08;103315.09;;;-139.74;0.00
76496;BME280;65329;52.544;4.662;2023-05-24T07:04:36;87667.25;;;-139.74;0.00
76496;BME280;65329;52.544;4.662;2023-05-24T07:07:06;78791.19;;;-139.74;0.00
76496;BME280;65329;52.544;4.662;2023-05-24T07:09:34;50679.59;;;-139.74;0.00
76496;BME280;65329;52.544;4.662;2023-05-24T07:12:01;34970.63;;;-139.74;0.00
76496;BME280;65329;52.544;4.662;2023-05-24T07:14:46;10680.75;;;-139.74;0.00
76496;BME280;65329;52.544;4.662;2023-05-24T07:17:13;26476.72;;;-139.74;0.00
76496;BME280;65329;52.544;4.662;2023-05-24T07:19:40;14827.69;;;-139.74;0.00
76496;BME280;65329;52.544;4.662;2023-05-24T07:22:07;-1562.69;;;-139.74;0.00
76496;BME280;65329;52.544;4.662;2023-05-24T07:24:35;-14521.66;;;-139.74;0.00
76496;BME280;65329;52.544;4.662;2023-05-24T07:27:02;-18597.69;;;-139.74;0.00
76496;BME280;65329;52.544;4.662;2023-05-24T07:29:31;-17830.34;;;-139.74;0.00
76496;BME280;65329;52.544;4.662;2023-05-24T07:31:58;-1885.56;;;-139.74;0.00
76496;BME280;65329;52.544;4.662;2023-05-24T07:34:25;37628.75;;;-139.74;0.00
76496;BME280;65329;52.544;4.662;2023-05-24T07:36:53;13435.94;;;-139.74;0.00
76496;BME280;65329;52.544;4.662;2023-05-24T07:39:20;7671.91;;;-139.74;0.00
76496;BME280;65329;52.544;4.662;2023-05-24T07:41:47;4811.66;;;-139.74;0.00
76496;BME280;65329;52.544;4.662;2023-05-24T07:44:13;-3133.56;;;-139.74;0.00
76496;BME280;65329;52.544;4.662;2023-05-24T07:46:40;-10471.56;;;-139.74;0.00
76496;BME280;65329;52.544;4.662;2023-05-24T07:49:07;-16363.81;;;-139.74;0.00
76496;BME280;65329;52.544;4.662;2023-05-24T07:51:34;-18597.69;;;-139.74;0.00
76496;BME280;65329;52.544;4.662;2023-05-24T07:54:02;-11353.72;;;-139.74;0.00
76496;BME280;65329;52.544;4.662;2023-05-24T07:56:29;-13779.63;;;-139.74;0.00
76496;BME280;65329;52.544;4.662;2023-05-24T07:58:56;-15458.22;;;-139.74;0.00
76496;BME280;65329;52.544;4.662;2023-05-24T08:01:33;-16593.25;;;-139.74;0.00
76496;BME280;65329;52.544;4.662;2023-05-24T08:04:01;-18411.88;;;-139.74;0.00
76496;BME280;65329;52.544;4.662;2023-05-24T08:06:30;-17508.81;;;-139.74;0.00
76496;BME280;65329;52.544;4.662;2023-05-24T08:08:58;-18597.69;;;-139.74;0.00
76496;BME280;65329;52.544;4.662;2023-05-24T08:11:25;-18597.69;;;-139.74;0.00
76496;BME280;65329;52.544;4.662;2023-05-24T08:13:53;-18597.69;;;-139.74;0.00
76496;BME280;65329;52.544;4.662;2023-05-24T08:16:20;-13970.28;;;-139.74;0.00
76496;BME280;65329;52.544;4.662;2023-05-24T08:18:46;-15511.50;;;-139.74;0.00
76496;BME280;65329;52.544;4.662;2023-05-24T08:21:13;-18597.69;;;-139.74;0.00
76496;BME280;65329;52.544;4.662;2023-05-24T08:23:40;-18597.69;;;-139.74;0.00
76496;BME280;65329;52.544;4.662;2023-05-24T08:26:07;-18597.69;;;-139.74;0.00
76496;BME280;65329;52.544;4.662;2023-05-24T08:28:34;-18597.69;;;-139.74;0.00
76496;BME280;65329;52.544;4.662;2023-05-24T08:31:08;-18597.69;;;-139.74;0.00
76496;BME280;65329;52.544;4.662;2023-05-24T08:33:35;-18597.69;;;-139.74;0.00
76496;BME280;65329;52.544;4.662;2023-05-24T08:36:03;-18597.69;;;-139.74;0.00
76496;BME280;65329;52.544;4.662;2023-05-24T08:38:30;-18597.69;;;-139.74;0.00
76496;BME280;65329;52.544;4.662;2023-05-24T08:40:58;-18597.69;;;-139.74;0.00
76496;BME280;65329;52.544;4.662;2023-05-24T08:43:25;-18597.69;;;-139.74;0.00
76496;BME280;65329;52.544;4.662;2023-05-24T08:45:54;-18597.69;;;-139.74;0.00
76496;BME280;65329;52.544;4.662;2023-05-24T08:48:24;-18597.69;;;-139.74;0.00
76496;BME280;65329;52.544;4.662;2023-05-24T08:50:52;-18597.69;;;-139.74;0.00
76496;BME280;65329;52.544;4.662;2023-05-24T08:53:20;-18597.69;;;-139.74;0.00
76496;BME280;65329;52.544;4.662;2023-05-24T08:56:04;-18597.69;;;-139.74;0.00
76496;BME280;65329;52.544;4.662;2023-05-24T08:58:31;-18597.69;;;-139.74;0.00
76496;BME280;65329;52.544;4.662;2023-05-24T09:01:02;-18597.69;;;-139.74;0.00
76496;BME280;65329;52.544;4.662;2023-05-24T09:03:30;-18597.69;;;-139.74;0.00
76496;BME280;65329;52.544;4.662;2023-05-24T09:05:58;-18597.69;;;-139.74;0.00
76496;BME280;65329;52.544;4.662;2023-05-24T09:08:27;-18597.69;;;-139.74;0.00
76496;BME280;65329;52.544;4.662;2023-05-24T09:10:54;-18597.69;;;-139.74;0.00
76496;BME280;65329;52.544;4.662;2023-05-24T09:13:22;-18597.69;;;-139.74;0.00
76496;BME280;65329;52.544;4.662;2023-05-24T09:15:54;-18597.69;;;-139.74;0.00
76496;BME280;65329;52.544;4.662;2023-05-24T09:18:21;-18597.69;;;-139.74;0.00
76496;BME280;65329;52.544;4.662;2023-05-24T09:20:48;-18597.69;;;-139.74;0.00
76496;BME280;65329;52.544;4.662;2023-05-24T09:23:16;-18597.69;;;-139.74;0.00
76496;BME280;65329;52.544;4.662;2023-05-24T09:25:44;-18597.69;;;-139.74;0.00
76496;BME280;65329;52.544;4.662;2023-05-24T09:28:14;-18597.69;;;-139.74;0.00
76496;BME280;65329;52.544;4.662;2023-05-24T09:30:43;-18597.69;;;-139.74;0.00
76496;BME280;65329;52.544;4.662;2023-05-24T09:33:11;-18597.69;;;-139.74;0.00
76496;BME280;65329;52.544;4.662;2023-05-24T09:35:42;-18597.69;;;-139.74;0.00
76496;BME280;65329;52.544;4.662;2023-05-24T09:38:17;-18597.69;;;-139.74;0.00
76496;BME280;65329;52.544;4.662;2023-05-24T09:40:44;-18597.69;;;-139.74;0.00
76496;BME280;65329;52.544;4.662;2023-05-24T09:43:13;-18597.69;;;-139.74;0.00
76496;BME280;65329;52.544;4.662;2023-05-24T09:45:44;-18597.69;;;-139.74;0.00
76496;BME280;65329;52.544;4.662;2023-05-24T09:48:13;-18597.69;;;-139.74;0.00
76496;BME280;65329;52.544;4.662;2023-05-24T09:50:42;-18597.69;;;-139.74;0.00
76496;BME280;65329;52.544;4.662;2023-05-24T09:53:16;-18597.69;;;-139.74;0.00
76496;BME280;65329;52.544;4.662;2023-05-24T09:55:43;-18597.69;;;-139.74;0.00
76496;BME280;65329;52.544;4.662;2023-05-24T09:58:10;-18597.69;;;-139.74;0.00
76496;BME280;65329;52.544;4.662;2023-05-24T10:00:39;-18597.69;;;-139.74;0.00
76496;BME280;65329;52.544;4.662;2023-05-24T10:03:09;-18597.69;;;-139.74;0.00
76496;BME280;65329;52.544;4.662;2023-05-24T10:05:41;-18597.69;;;-139.74;0.00
76496;BME280;65329;52.544;4.662;2023-05-24T10:08:10;-18597.69;;;-139.74;0.00
76496;BME280;65329;52.544;4.662;2023-05-24T10:10:37;-18597.69;;;-139.74;0.00
76496;BME280;65329;52.544;4.662;2023-05-24T10:13:04;-18597.69;;;-139.74;0.00
76496;BME280;65329;52.544;4.662;2023-05-24T10:15:31;-18597.69;;;-139.74;0.00
76496;BME280;65329;52.544;4.662;2023-05-24T10:17:58;-18597.69;;;-139.74;0.00
76496;BME280;65329;52.544;4.662;2023-05-24T10:20:37;-18597.69;;;-139.74;0.00
76496;BME280;65329;52.544;4.662;2023-05-24T10:23:13;-18597.69;;;-139.74;0.00
76496;BME280;65329;52.544;4.662;2023-05-24T10:25:50;-18597.69;;;-139.74;0.00
76496;BME280;65329;52.544;4.662;2023-05-24T10:28:21;-18597.69;;;-139.74;0.00
76496;BME280;65329;52.544;4.662;2023-05-24T10:33:29;-18597.69;;;-139.74;0.00
76496;BME280;65329;52.544;4.662;2023-05-24T10:35:58;-18597.69;;;-139.74;0.00
76496;BME280;65329;52.544;4.662;2023-05-24T10:38:25;-18597.69;;;-139.74;0.00
76496;BME280;65329;52.544;4.662;2023-05-24T10:40:51;-18597.69;;;-139.74;0.00
76496;BME280;65329;52.544;4.662;2023-05-24T10:43:20;-18597.69;;;-139.74;0.00
76496;BME280;65329;52.544;4.662;2023-05-24T10:45:48;-18597.69;;;-139.74;0.00
76496;BME280;65329;52.544;4.662;2023-05-24T10:50:43;-18597.69;;;-139.74;0.00
76496;BME280;65329;52.544;4.662;2023-05-24T10:53:20;-18597.69;;;-139.74;0.00
76496;BME280;65329;52.544;4.662;2023-05-24T10:56:01;-18597.69;;;-139.74;0.00
76496;BME280;65329;52.544;4.662;2023-05-24T11:00:59;-18597.69;;;-139.74;0.00
76496;BME280;65329;52.544;4.662;2023-05-24T11:03:31;-18597.69;;;-139.74;0.00
76496;BME280;65329;52.544;4.662;2023-05-24T11:05:58;-18597.69;;;-139.74;0.00
76496;BME280;65329;52.544;4.662;2023-05-24T11:08:32;-18597.69;;;-139.74;0.00
76496;BME280;65329;52.544;4.662;2023-05-24T11:11:07;-18597.69;;;-139.74;0.00
76496;BME280;65329;52.544;4.662;2023-05-24T11:13:48;-18597.69;;;-139.74;0.00
76496;BME280;65329;52.544;4.662;2023-05-24T11:16:35;-18597.69;;;-139.74;0.00
76496;BME280;65329;52.544;4.662;2023-05-24T11:19:18;-18597.69;;;-139.74;0.00
76496;BME280;65329;52.544;4.662;2023-05-24T11:21:50;-18597.69;;;-139.74;0.00
76496;BME280;65329;52.544;4.662;2023-05-24T11:24:25;-18597.69;;;-139.74;0.00
76496;BME280;65329;52.544;4.662;2023-05-24T11:26:53;-18597.69;;;-139.74;0.00
76496;BME280;65329;52.544;4.662;2023-05-24T11:29:20;-18597.69;;;-139.74;0.00
76496;BME280;65329;52.544;4.662;2023-05-24T11:31:57;-18597.69;;;-139.74;0.00
76496;BME280;65329;52.544;4.662;2023-05-24T11:34:28;-18597.69;;;-139.74;0.00
76496;BME280;65329;52.544;4.662;2023-05-24T11:37:00;-18597.69;;;-139.74;0.00
76496;BME280;65329;52.544;4.662;2023-05-24T11:39:29;-18597.69;;;-139.74;0.00
76496;BME280;65329;52.544;4.662;2023-05-24T11:41:56;-18597.69;;;-139.74;0.00
76496;BME280;65329;52.544;4.662;2023-05-24T11:44:23;-18597.69;;;-139.74;0.00
76496;BME280;65329;52.544;4.662;2023-05-24T11:47:05;-18597.69;;;-139.74;0.00
76496;BME280;65329;52.544;4.662;2023-05-24T11:49:32;-18597.69;;;-139.74;0.00
76496;BME280;65329;52.544;4.662;2023-05-24T11:52:00;-18597.69;;;-139.74;0.00
76496;BME280;65329;52.544;4.662;2023-05-24T11:54:28;-18597.69;;;-139.74;0.00
76496;BME280;65329;52.544;4.662;2023-05-24T11:56:58;-18597.69;;;-139.74;0.00
76496;BME280;65329;52.544;4.662;2023-05-24T11:59:26;-18597.69;;;-139.74;0.00
76496;BME280;65329;52.544;4.662;2023-05-24T12:02:00;-18597.69;;;-139.74;0.00
76496;BME280;65329;52.544;4.662;2023-05-24T12:04:29;-18597.69;;;-139.74;0.00
76496;BME280;65329;52.544;4.662;2023-05-24T12:06:56;-18597.69;;;-139.74;0.00
76496;BME280;65329;52.544;4.662;2023-05-24T12:09:24;-18424.16;;;-139.74;0.00
76496;BME280;65329;52.544;4.662;2023-05-24T12:11:53;-17557.97;;;-139.74;0.00
76496;BME280;65329;52.544;4.662;2023-05-24T12:14:28;-18597.69;;;-139.74;0.00
76496;BME280;65329;52.544;4.662;2023-05-24T12:16:57;-18196.88;;;-139.74;0.00
76496;BME280;65329;52.544;4.662;2023-05-24T12:19:32;-18597.69;;;-139.74;0.00
76496;BME280;65329;52.544;4.662;2023-05-24T12:22:05;-18597.69;;;-139.74;0.00
76496;BME280;65329;52.544;4.662;2023-05-24T12:24:33;-18597.69;;;-139.74;0.00
76496;BME280;65329;52.544;4.662;2023-05-24T12:27:02;-11755.75;;;-139.74;0.00
76496;BME280;65329;52.544;4.662;2023-05-24T12:29:37;-17826.25;;;-139.74;0.00
76496;BME280;65329;52.544;4.662;2023-05-24T12:32:06;-18597.69;;;-139.74;0.00
76496;BME280;65329;52.544;4.662;2023-05-24T12:34:40;-18597.69;;;-139.74;0.00
76496;BME280;65329;52.544;4.662;2023-05-24T12:37:08;-18597.69;;;-139.74;0.00
76496;BME280;65329;52.544;4.662;2023-05-24T12:39:36;-18597.69;;;-139.74;0.00
76496;BME280;65329;52.544;4.662;2023-05-24T12:42:04;-18597.69;;;-139.74;0.00
76496;BME280;65329;52.544;4.662;2023-05-24T12:44:35;-18583.88;;;-139.74;0.00
76496;BME280;65329;52.544;4.662;2023-05-24T12:47:04;-16757.13;;;-139.74;0.00
76496;BME280;65329;52.544;4.662;2023-05-24T12:49:32;-18597.69;;;-139.74;0.00
76496;BME280;65329;52.544;4.662;2023-05-24T12:51:59;-18597.69;;;-139.74;0.00
76496;BME280;65329;52.544;4.662;2023-05-24T12:54:28;-18597.69;;;-139.74;0.00
76496;BME280;65329;52.544;4.662;2023-05-24T12:56:56;-18597.69;;;-139.74;0.00
76496;BME280;65329;52.544;4.662;2023-05-24T12:59:27;-18597.69;;;-139.74;0.00
76496;BME280;65329;52.544;4.662;2023-05-24T13:01:54;-18597.69;;;-139.74;0.00
76496;BME280;65329;52.544;4.662;2023-05-24T13:04:23;-17218.00;;;-139.74;0.00
76496;BME280;65329;52.544;4.662;2023-05-24T13:06:53;-18597.69;;;-139.74;0.00
76496;BME280;65329;52.544;4.662;2023-05-24T13:09:24;-16742.78;;;-139.74;0.00
76496;BME280;65329;52.544;4.662;2023-05-24T13:11:51;-18597.69;;;-139.74;0.00